createdAt,value
2022-10-27T00:00:26.426Z,1001.2
2022-10-27T00:01:33.649Z,1001.2
2022-10-27T00:02:29.579Z,1001.2
2022-10-27T00:03:25.720Z,1001.2
2022-10-27T00:04:27.183Z,1001.2
2022-10-27T00:05:32.507Z,1001.2
2022-10-27T00:06:28.430Z,1001.2
2022-10-27T00:07:25.618Z,1001.2
2022-10-27T00:08:26.821Z,1001.2
2022-10-27T00:09:29.019Z,1001.2
2022-10-27T00:10:29.756Z,1001.2
2022-10-27T00:11:39.420Z,1001.2
2022-10-27T00:12:24.856Z,1001.2
2022-10-27T00:13:22.439Z,1001.2
2022-10-27T00:14:24.736Z,1001.2
2022-10-27T00:15:25.336Z,1001.2
2022-10-27T00:16:29.180Z,1001.3
2022-10-27T00:17:29.877Z,1001.3
2022-10-27T00:18:22.665Z,1001.3
2022-10-27T00:19:21.952Z,1001.3
2022-10-27T00:20:20.328Z,1001.3
2022-10-27T00:21:25.492Z,1001.3
2022-10-27T00:22:30.892Z,1001.3
2022-10-27T00:23:28.891Z,1001.3
2022-10-27T00:24:27.202Z,1001.3
2022-10-27T00:25:22.990Z,1001.3
2022-10-27T00:26:23.485Z,1001.3
2022-10-27T00:27:21.523Z,1001.3
2022-10-27T00:28:26.025Z,1001.3
2022-10-27T00:29:35.248Z,1001.3
2022-10-27T00:30:24.332Z,1001.3
2022-10-27T00:31:29.711Z,1001.3
2022-10-27T00:32:21.093Z,1001.3
2022-10-27T00:33:26.790Z,1001.3
2022-10-27T00:34:28.900Z,1001.3
2022-10-27T00:35:24.425Z,1001.3
2022-10-27T00:36:30.462Z,1001.3
2022-10-27T00:37:20.957Z,1001.3
2022-10-27T00:38:29.838Z,1001.3
2022-10-27T00:39:22.675Z,1001.3
2022-10-27T00:40:31.911Z,1001.3
2022-10-27T00:41:25.724Z,1001.2
2022-10-27T00:42:28.499Z,1001.2
2022-10-27T00:43:33.302Z,1001.2
2022-10-27T00:44:25.110Z,1001.2
2022-10-27T00:45:27.389Z,1001.2
2022-10-27T00:46:22.444Z,1001.2
2022-10-27T00:47:26.594Z,1001.2
2022-10-27T00:48:27.416Z,1001.1
2022-10-27T00:49:23.010Z,1001.1
2022-10-27T00:50:24.068Z,1001.1
2022-10-27T00:51:30.131Z,1001.1
2022-10-27T00:52:28.828Z,1001.1
2022-10-27T00:53:21.090Z,1001.1
2022-10-27T00:54:33.313Z,1001.1
2022-10-27T00:55:22.154Z,1001.2
2022-10-27T00:56:22.932Z,1001.2
2022-10-27T00:57:23.863Z,1001.2
2022-10-27T00:58:23.075Z,1001.2
2022-10-27T00:59:28.900Z,1001.2
2022-10-27T01:00:23.564Z,1001.3
2022-10-27T01:38:27.477Z,1001.6
2022-10-27T01:39:33.503Z,1001.6
2022-10-27T01:40:31.834Z,1001.6
2022-10-27T01:41:26.049Z,1001.6
2022-10-27T02:14:29.298Z,1001.5
2022-10-27T02:15:31.754Z,1001.5
2022-10-27T02:16:27.443Z,1001.5
2022-10-27T02:18:29.548Z,1001.5
2022-10-27T02:18:34.905Z,1001.5
2022-10-27T02:19:27.432Z,1001.5
2022-10-27T02:20:25.167Z,1001.5
2022-10-27T02:21:23.993Z,1001.5
2022-10-27T02:22:21.807Z,1001.5
2022-10-27T02:23:25.158Z,1001.4
2022-10-27T02:24:21.489Z,1001.4
2022-10-27T02:25:27.815Z,1001.4
2022-10-27T02:26:28.794Z,1001.4
2022-10-27T02:27:26.052Z,1001.4
2022-10-27T02:28:29.477Z,1001.4
2022-10-27T02:29:22.884Z,1001.4
2022-10-27T02:30:25.471Z,1001.4
2022-10-27T02:31:21.115Z,1001.4
2022-10-27T02:32:32.082Z,1001.4
2022-10-27T02:33:28.071Z,1001.4
2022-10-27T02:34:23.620Z,1001.4
2022-10-27T02:35:26.425Z,1001.4
2022-10-27T02:36:25.120Z,1001.4
2022-10-27T02:37:25.394Z,1001.4
2022-10-27T02:38:21.515Z,1001.4
2022-10-27T02:39:22.407Z,1001.4
2022-10-27T02:40:19.940Z,1001.4
2022-10-27T02:41:23.365Z,1001.4
2022-10-27T02:42:30.087Z,1001.4
2022-10-27T02:43:23.505Z,1001.4
2022-10-27T02:44:21.988Z,1001.4
2022-10-27T02:45:21.805Z,1001.4
2022-10-27T02:46:32.049Z,1001.3
2022-10-27T02:47:23.072Z,1001.4
2022-10-27T02:48:25.268Z,1001.3
2022-10-27T02:49:35.192Z,1001.3
2022-10-27T02:50:32.970Z,1001.3
2022-10-27T02:51:19.999Z,1001.3
2022-10-27T02:52:21.486Z,1001.3
2022-10-27T02:53:31.847Z,1001.3
2022-10-27T02:54:27.305Z,1001.3
2022-10-27T02:55:24.002Z,1001.3
2022-10-27T02:56:25.410Z,1001.3
2022-10-27T02:57:32.027Z,1001.3
2022-10-27T02:58:21.105Z,1001.3
2022-10-27T02:59:25.416Z,1001.3
2022-10-27T03:00:31.105Z,1001.3
2022-10-27T03:01:32.189Z,1001.3
2022-10-27T03:02:23.902Z,1001.3
2022-10-27T03:03:35.492Z,1001.3
2022-10-27T03:04:29.898Z,1001.2
2022-10-27T03:05:28.357Z,1001.2
2022-10-27T03:06:20.755Z,1001.2
2022-10-27T03:07:26.022Z,1001.2
2022-10-27T03:08:28.713Z,1001.2
2022-10-27T03:09:35.820Z,1001.2
2022-10-27T03:10:33.711Z,1001.3
2022-10-27T03:11:30.685Z,1001.3
2022-10-27T03:12:28.538Z,1001.3
2022-10-27T03:13:21.728Z,1001.3
2022-10-27T03:14:28.786Z,1001.3
2022-10-27T03:15:27.101Z,1001.3
2022-10-27T03:16:24.539Z,1001.3
2022-10-27T03:17:34.733Z,1001.4
2022-10-27T03:18:29.829Z,1001.4
2022-10-27T03:19:27.381Z,1001.4
2022-10-27T03:20:21.264Z,1001.4
2022-10-27T03:21:21.951Z,1001.4
2022-10-27T03:22:24.013Z,1001.4
2022-10-27T03:23:25.242Z,1001.4
2022-10-27T03:24:23.850Z,1001.4
2022-10-27T03:25:30.544Z,1001.4
2022-10-27T03:26:25.358Z,1001.3
2022-10-27T03:27:22.643Z,1001.3
2022-10-27T03:28:27.037Z,1001.3
2022-10-27T03:29:28.210Z,1001.3
2022-10-27T03:30:23.067Z,1001.2
2022-10-27T03:31:39.071Z,1001.2
2022-10-27T03:32:30.423Z,1001.2
2022-10-27T03:33:26.657Z,1001.2
2022-10-27T03:34:23.816Z,1001.2
2022-10-27T03:35:20.601Z,1001.2
2022-10-27T03:36:24.940Z,1001.1
2022-10-27T03:37:23.581Z,1001.1
2022-10-27T03:38:34.690Z,1001.1
2022-10-27T03:39:29.645Z,1001.1
2022-10-27T03:40:25.427Z,1001.1
2022-10-27T03:41:22.766Z,1001.2
2022-10-27T03:42:35.815Z,1001.2
2022-10-27T03:43:27.849Z,1001.2
2022-10-27T03:44:21.909Z,1001.2
2022-10-27T03:45:26.820Z,1001.2
2022-10-27T03:46:29.303Z,1001.3
2022-10-27T03:47:26.849Z,1001.3
2022-10-27T03:48:21.554Z,1001.3
2022-10-27T03:49:31.165Z,1001.4
2022-10-27T03:50:28.999Z,1001.4
2022-10-27T03:51:24.040Z,1001.4
2022-10-27T03:52:23.139Z,1001.4
2022-10-27T03:53:29.454Z,1001.5
2022-10-27T03:54:25.378Z,1001.5
2022-10-27T03:55:23.655Z,1001.5
2022-10-27T03:56:31.220Z,1001.5
2022-10-27T03:57:27.462Z,1001.5
2022-10-27T03:58:23.489Z,1001.5
2022-10-27T03:59:21.057Z,1001.5
2022-10-27T04:00:34.456Z,1001.5
2022-10-27T04:01:29.185Z,1001.5
2022-10-27T04:02:23.691Z,1001.4
2022-10-27T04:03:23.824Z,1001.5
2022-10-27T04:04:29.942Z,1001.4
2022-10-27T04:05:25.645Z,1001.5
2022-10-27T04:06:24.772Z,1001.5
2022-10-27T04:07:25.721Z,1001.5
2022-10-27T04:08:25.294Z,1001.5
2022-10-27T04:09:24.071Z,1001.6
2022-10-27T04:10:27.182Z,1001.6
2022-10-27T04:11:27.530Z,1001.6
2022-10-27T04:12:25.935Z,1001.6
2022-10-27T04:13:30.864Z,1001.7
2022-10-27T04:14:22.285Z,1001.7
2022-10-27T04:15:26.026Z,1001.7
2022-10-27T04:16:21.847Z,1001.7
2022-10-27T04:17:31.297Z,1001.7
2022-10-27T04:18:27.178Z,1001.7
2022-10-27T04:19:24.489Z,1001.7
2022-10-27T04:20:23.054Z,1001.8
2022-10-27T04:21:26.508Z,1001.8
2022-10-27T04:22:26.766Z,1001.8
2022-10-27T04:23:21.172Z,1001.7
2022-10-27T04:24:32.250Z,1001.7
2022-10-27T04:25:27.200Z,1001.7
2022-10-27T04:26:27.333Z,1001.7
2022-10-27T04:27:33.880Z,1001.7
2022-10-27T04:28:26.583Z,1001.7
2022-10-27T04:29:24.333Z,1001.7
2022-10-27T04:30:25.391Z,1001.7
2022-10-27T04:31:35.371Z,1001.7
2022-10-27T04:32:21.226Z,1001.7
2022-10-27T04:33:28.065Z,1001.8
2022-10-27T04:34:34.448Z,1001.8
2022-10-27T04:35:29.710Z,1001.8
2022-10-27T04:36:27.197Z,1001.9
2022-10-27T04:37:22.880Z,1001.9
2022-10-27T04:38:23.077Z,1001.9
2022-10-27T04:39:24.335Z,1001.9
2022-10-27T04:40:23.047Z,1001.9
2022-10-27T04:41:34.449Z,1001.9
2022-10-27T04:42:32.237Z,1001.9
2022-10-27T04:43:27.889Z,1001.9
2022-10-27T04:44:24.318Z,1001.9
2022-10-27T04:45:25.109Z,1001.9
2022-10-27T04:46:28.489Z,1001.8
2022-10-27T04:47:23.612Z,1001.8
2022-10-27T04:48:25.010Z,1001.8
2022-10-27T04:49:29.482Z,1001.8
2022-10-27T04:50:32.460Z,1001.7
2022-10-27T04:51:23.670Z,1001.7
2022-10-27T04:52:21.502Z,1001.7
2022-10-27T04:53:22.805Z,1001.7
2022-10-27T04:54:24.542Z,1001.7
2022-10-27T04:55:33.294Z,1001.7
2022-10-27T04:56:30.588Z,1001.7
2022-10-27T04:57:26.110Z,1001.7
2022-10-27T04:58:33.640Z,1001.7
2022-10-27T04:59:24.990Z,1001.7
2022-10-27T05:00:33.309Z,1001.8
2022-10-27T05:01:20.536Z,1001.8
2022-10-27T05:02:36.196Z,1001.8
2022-10-27T05:03:30.618Z,1001.8
2022-10-27T05:04:28.029Z,1001.8
2022-10-27T05:05:21.525Z,1001.8
2022-10-27T05:06:32.845Z,1001.8
2022-10-27T05:07:22.960Z,1001.9
2022-10-27T05:08:26.467Z,1001.9
2022-10-27T05:09:36.743Z,1001.9
2022-10-27T05:10:30.272Z,1001.9
2022-10-27T05:11:29.380Z,1001.9
2022-10-27T05:12:21.552Z,1001.9
2022-10-27T05:13:33.307Z,1001.8
2022-10-27T05:14:28.745Z,1001.8
2022-10-27T05:15:28.054Z,1001.8
2022-10-27T05:16:21.614Z,1001.9
2022-10-27T05:17:33.636Z,1001.9
2022-10-27T05:18:25.999Z,1001.9
2022-10-27T05:19:22.749Z,1001.9
2022-10-27T05:20:32.815Z,1001.9
2022-10-27T05:21:30.270Z,1001.9
2022-10-27T05:22:25.681Z,1001.9
2022-10-27T05:23:25.240Z,1001.9
2022-10-27T05:24:29.108Z,1001.9
2022-10-27T05:25:26.788Z,1001.9
2022-10-27T05:26:21.352Z,1001.9
2022-10-27T05:27:31.615Z,1002.0
2022-10-27T05:28:29.059Z,1002.0
2022-10-27T05:29:24.866Z,1002.0
2022-10-27T05:30:21.160Z,1002.0
2022-10-27T05:31:23.730Z,1001.9
2022-10-27T05:32:26.836Z,1001.9
2022-10-27T05:33:21.161Z,1001.9
2022-10-27T05:34:33.622Z,1001.9
2022-10-27T05:35:34.826Z,1001.8
2022-10-27T05:36:23.184Z,1001.8
2022-10-27T05:37:24.471Z,1001.8
2022-10-27T05:38:26.517Z,1001.8
2022-10-27T05:39:20.927Z,1001.8
2022-10-27T05:40:21.150Z,1001.8
2022-10-27T05:41:31.533Z,1001.8
2022-10-27T05:42:28.930Z,1001.8
2022-10-27T05:43:23.569Z,1001.8
2022-10-27T05:44:28.216Z,1001.8
2022-10-27T05:45:21.063Z,1001.8
2022-10-27T05:46:25.780Z,1001.8
2022-10-27T05:47:21.501Z,1001.9
2022-10-27T05:48:22.420Z,1001.9
2022-10-27T05:49:29.975Z,1001.9
2022-10-27T05:50:23.662Z,1001.9
2022-10-27T05:51:28.609Z,1001.9
2022-10-27T05:52:25.652Z,1001.9
2022-10-27T05:53:28.516Z,1002.0
2022-10-27T05:54:23.196Z,1002.0
2022-10-27T05:55:23.096Z,1002.0
2022-10-27T05:56:29.056Z,1002.0
2022-10-27T05:57:23.635Z,1002.0
2022-10-27T05:58:21.206Z,1002.0
2022-10-27T05:59:31.176Z,1001.9
2022-10-27T06:00:23.181Z,1001.9
2022-10-27T06:01:24.035Z,1001.9
2022-10-27T06:02:27.145Z,1001.9
2022-10-27T06:03:27.499Z,1002.0
2022-10-27T06:04:25.624Z,1002.0
2022-10-27T06:05:19.652Z,1002.0
2022-10-27T06:06:22.214Z,1002.0
2022-10-27T06:07:27.274Z,1002.1
2022-10-27T06:08:21.780Z,1002.1
2022-10-27T06:09:22.483Z,1002.1
2022-10-27T06:10:27.695Z,1002.1
2022-10-27T06:11:23.375Z,1002.1
2022-10-27T06:12:21.684Z,1002.1
2022-10-27T06:13:25.722Z,1002.1
2022-10-27T06:14:28.154Z,1002.1
2022-10-27T06:15:23.211Z,1002.1
2022-10-27T06:16:26.027Z,1002.0
2022-10-27T06:17:27.193Z,1002.0
2022-10-27T06:18:23.387Z,1002.1
2022-10-27T06:19:19.436Z,1002.1
2022-10-27T06:20:29.247Z,1002.1
2022-10-27T06:21:26.400Z,1002.1
2022-10-27T06:22:22.253Z,1002.1
2022-10-27T06:23:20.101Z,1002.1
2022-10-27T06:24:25.201Z,1002.1
2022-10-27T06:25:23.301Z,1002.1
2022-10-27T06:26:22.267Z,1002.1
2022-10-27T06:27:31.492Z,1002.1
2022-10-27T06:28:25.266Z,1002.1
2022-10-27T06:29:22.546Z,1002.1
2022-10-27T06:30:26.381Z,1002.1
2022-10-27T06:31:25.071Z,1002.1
2022-10-27T06:32:26.480Z,1002.1
2022-10-27T06:33:21.380Z,1002.2
2022-10-27T06:34:38.371Z,1002.2
2022-10-27T06:35:22.353Z,1002.2
2022-10-27T06:36:21.420Z,1002.2
2022-10-27T06:37:27.920Z,1002.2
2022-10-27T06:38:25.395Z,1002.3
2022-10-27T06:39:25.304Z,1002.3
2022-10-27T06:40:19.462Z,1002.3
2022-10-27T06:41:31.563Z,1002.3
2022-10-27T06:42:25.210Z,1002.4
2022-10-27T06:43:23.236Z,1002.4
2022-10-27T06:44:33.629Z,1002.4
2022-10-27T06:45:27.676Z,1002.4
2022-10-27T06:46:24.749Z,1002.4
2022-10-27T06:47:21.858Z,1002.4
2022-10-27T06:48:30.708Z,1002.4
2022-10-27T06:49:26.942Z,1002.5
2022-10-27T06:50:21.357Z,1002.5
2022-10-27T06:51:31.491Z,1002.5
2022-10-27T06:52:30.634Z,1002.5
2022-10-27T06:53:23.796Z,1002.5
2022-10-27T06:54:19.325Z,1002.5
2022-10-27T06:55:29.554Z,1002.5
2022-10-27T06:56:26.799Z,1002.6
2022-10-27T06:57:21.237Z,1002.6
2022-10-27T06:58:32.946Z,1002.6
2022-10-27T06:59:28.348Z,1002.6
2022-10-27T07:00:27.798Z,1002.6
2022-10-27T07:01:19.322Z,1002.6
2022-10-27T07:02:23.417Z,1002.6
2022-10-27T07:03:22.427Z,1002.6
2022-10-27T07:04:21.757Z,1002.6
2022-10-27T07:05:31.509Z,1002.6
2022-10-27T07:06:27.505Z,1002.6
2022-10-27T07:07:24.936Z,1002.6
2022-10-27T07:08:21.527Z,1002.6
2022-10-27T07:09:31.515Z,1002.6
2022-10-27T07:10:20.433Z,1002.7
2022-10-27T07:11:22.093Z,1002.7
2022-10-27T07:12:31.335Z,1002.7
2022-10-27T07:13:30.075Z,1002.7
2022-10-27T07:14:19.299Z,1002.7
2022-10-27T07:15:19.699Z,1002.7
2022-10-27T07:16:19.917Z,1002.7
2022-10-27T07:17:26.880Z,1002.7
2022-10-27T07:18:23.809Z,1002.7
2022-10-27T07:19:31.307Z,1002.7
2022-10-27T07:20:25.992Z,1002.7
2022-10-27T07:21:23.552Z,1002.8
2022-10-27T07:22:20.297Z,1002.8
2022-10-27T07:23:24.114Z,1002.8
2022-10-27T07:24:28.841Z,1002.8
2022-10-27T07:25:29.084Z,1002.8
2022-10-27T07:26:33.834Z,1002.9
2022-10-27T07:27:28.729Z,1002.9
2022-10-27T07:28:25.056Z,1002.8
2022-10-27T07:29:20.716Z,1002.9
2022-10-27T07:30:29.241Z,1002.9
2022-10-27T07:31:21.697Z,1002.9
2022-10-27T07:32:21.394Z,1002.9
2022-10-27T07:33:31.728Z,1002.9
2022-10-27T07:34:30.709Z,1002.9
2022-10-27T07:35:23.379Z,1002.8
2022-10-27T07:36:20.596Z,1002.8
2022-10-27T07:37:28.117Z,1002.9
2022-10-27T07:38:25.274Z,1002.9
2022-10-27T07:39:21.523Z,1002.9
2022-10-27T07:40:28.595Z,1002.9
2022-10-27T07:41:27.327Z,1003.0
2022-10-27T07:42:24.251Z,1003.0
2022-10-27T07:43:21.640Z,1003.0
2022-10-27T07:44:29.793Z,1003.0
2022-10-27T07:45:28.326Z,1003.0
2022-10-27T07:46:21.985Z,1003.0
2022-10-27T07:47:26.855Z,1003.0
2022-10-27T07:48:21.263Z,1003.0
2022-10-27T07:49:25.878Z,1003.1
2022-10-27T07:50:23.240Z,1003.1
2022-10-27T07:51:31.273Z,1003.1
2022-10-27T07:52:25.712Z,1003.1
2022-10-27T07:53:21.356Z,1003.1
2022-10-27T07:54:31.529Z,1003.1
2022-10-27T07:55:23.956Z,1003.1
2022-10-27T07:56:25.116Z,1003.1
2022-10-27T07:57:19.397Z,1003.1
2022-10-27T07:58:23.372Z,1003.1
2022-10-27T07:59:20.480Z,1003.1
2022-10-27T08:00:22.469Z,1003.1
2022-10-27T08:01:23.181Z,1003.1
2022-10-27T08:02:28.247Z,1003.1
2022-10-27T08:03:23.886Z,1003.2
2022-10-27T08:04:20.449Z,1003.2
2022-10-27T08:05:26.638Z,1003.2
2022-10-27T08:06:40.865Z,1003.2
2022-10-27T08:07:23.659Z,1003.3
2022-10-27T08:08:29.122Z,1003.3
2022-10-27T08:09:22.739Z,1003.3
2022-10-27T08:10:44.900Z,1003.3
2022-10-27T08:11:27.177Z,1003.3
2022-10-27T08:12:29.676Z,1003.3
2022-10-27T08:13:25.577Z,1003.3
2022-10-27T08:14:23.588Z,1003.3
2022-10-27T08:15:32.467Z,1003.3
2022-10-27T08:16:23.768Z,1003.3
2022-10-27T08:17:24.558Z,1003.2
2022-10-27T08:18:22.367Z,1003.2
2022-10-27T08:19:31.039Z,1003.2
2022-10-27T08:20:26.270Z,1003.2
2022-10-27T08:21:21.550Z,1003.2
2022-10-27T08:22:28.807Z,1003.2
2022-10-27T08:23:28.018Z,1003.2
2022-10-27T08:24:24.343Z,1003.2
2022-10-27T08:25:19.668Z,1003.2
2022-10-27T08:26:19.913Z,1003.2
2022-10-27T08:27:23.579Z,1003.2
2022-10-27T08:28:21.543Z,1003.3
2022-10-27T08:29:32.215Z,1003.3
2022-10-27T08:30:34.031Z,1003.3
2022-10-27T08:31:25.172Z,1003.3
2022-10-27T08:32:19.712Z,1003.3
2022-10-27T08:33:24.664Z,1003.3
2022-10-27T08:34:25.430Z,1003.4
2022-10-27T08:35:36.930Z,1003.4
2022-10-27T08:36:31.302Z,1003.4
2022-10-27T08:37:31.715Z,1003.4
2022-10-27T08:38:23.796Z,1003.4
2022-10-27T08:39:23.945Z,1003.4
2022-10-27T08:40:31.904Z,1003.4
2022-10-27T08:41:24.199Z,1003.4
2022-10-27T08:42:21.617Z,1003.5
2022-10-27T08:43:33.515Z,1003.5
2022-10-27T08:44:21.742Z,1003.5
2022-10-27T08:45:23.340Z,1003.5
2022-10-27T08:46:20.373Z,1003.5
2022-10-27T08:47:32.604Z,1003.5
2022-10-27T08:48:25.277Z,1003.5
2022-10-27T08:49:21.369Z,1003.5
2022-10-27T08:50:28.298Z,1003.5
2022-10-27T08:51:28.143Z,1003.5
2022-10-27T08:52:27.240Z,1003.5
2022-10-27T08:53:20.172Z,1003.5
2022-10-27T08:54:22.819Z,1003.5
2022-10-27T08:55:25.369Z,1003.5
2022-10-27T08:56:22.446Z,1003.5
2022-10-27T08:57:36.435Z,1003.5
2022-10-27T08:58:28.904Z,1003.5
2022-10-27T08:59:24.599Z,1003.5
2022-10-27T09:00:19.368Z,1003.5
2022-10-27T09:01:24.391Z,1003.5
2022-10-27T09:02:23.719Z,1003.4
2022-10-27T09:03:24.897Z,1003.4
2022-10-27T09:04:25.640Z,1003.4
2022-10-27T09:05:30.330Z,1003.4
2022-10-27T09:06:23.678Z,1003.4
2022-10-27T09:07:20.629Z,1003.4
2022-10-27T09:08:34.461Z,1003.4
2022-10-27T09:09:25.710Z,1003.5
2022-10-27T09:10:21.324Z,1003.5
2022-10-27T09:11:23.666Z,1003.5
2022-10-27T09:12:20.254Z,1003.5
2022-10-27T09:13:24.717Z,1003.5
2022-10-27T09:14:22.135Z,1003.5
2022-10-27T09:15:29.560Z,1003.5
2022-10-27T09:16:30.487Z,1003.5
2022-10-27T09:17:21.783Z,1003.5
2022-10-27T09:18:28.951Z,1003.5
2022-10-27T09:19:20.788Z,1003.5
2022-10-27T09:20:23.812Z,1003.5
2022-10-27T09:21:19.679Z,1003.5
2022-10-27T09:22:29.639Z,1003.5
2022-10-27T09:23:25.716Z,1003.5
2022-10-27T09:24:23.022Z,1003.5
2022-10-27T09:25:32.589Z,1003.5
2022-10-27T09:26:29.279Z,1003.6
2022-10-27T09:27:23.592Z,1003.6
2022-10-27T09:28:19.717Z,1003.6
2022-10-27T09:29:23.204Z,1003.6
2022-10-27T09:30:29.017Z,1003.6
2022-10-27T09:31:23.268Z,1003.6
2022-10-27T09:32:22.720Z,1003.6
2022-10-27T09:33:29.116Z,1003.6
2022-10-27T09:34:23.528Z,1003.5
2022-10-27T09:35:21.205Z,1003.5
2022-10-27T09:36:29.535Z,1003.5
2022-10-27T09:37:25.805Z,1003.5
2022-10-27T09:38:22.184Z,1003.5
2022-10-27T09:39:26.531Z,1003.5
2022-10-27T09:40:34.185Z,1003.6
2022-10-27T09:41:27.982Z,1003.6
2022-10-27T09:42:22.373Z,1003.6
2022-10-27T09:43:21.790Z,1003.6
2022-10-27T09:44:27.197Z,1003.6
2022-10-27T09:45:21.511Z,1003.6
2022-10-27T09:46:24.353Z,1003.6
2022-10-27T09:47:23.179Z,1003.6
2022-10-27T09:48:24.140Z,1003.6
2022-10-27T09:49:19.779Z,1003.6
2022-10-27T09:50:23.583Z,1003.5
2022-10-27T09:51:26.051Z,1003.5
2022-10-27T09:52:23.757Z,1003.5
2022-10-27T09:53:35.235Z,1003.5
2022-10-27T09:54:27.292Z,1003.5
2022-10-27T09:55:20.391Z,1003.5
2022-10-27T09:56:21.283Z,1003.5
2022-10-27T09:57:21.329Z,1003.5
2022-10-27T09:58:25.314Z,1003.5
2022-10-27T09:59:23.471Z,1003.5
2022-10-27T10:00:34.817Z,1003.5
2022-10-27T10:01:21.516Z,1003.5
2022-10-27T10:02:24.223Z,1003.5
2022-10-27T10:03:22.031Z,1003.5
2022-10-27T10:04:24.515Z,1003.5
2022-10-27T10:05:25.903Z,1003.5
2022-10-27T10:06:21.418Z,1003.5
2022-10-27T10:07:31.679Z,1003.5
2022-10-27T10:08:24.005Z,1003.5
2022-10-27T10:09:25.085Z,1003.5
2022-10-27T10:10:24.465Z,1003.5
2022-10-27T10:11:33.921Z,1003.6
2022-10-27T10:12:23.730Z,1003.6
2022-10-27T10:13:21.186Z,1003.5
2022-10-27T10:14:25.327Z,1003.6
2022-10-27T10:15:28.589Z,1003.6
2022-10-27T10:16:24.724Z,1003.6
2022-10-27T10:17:19.394Z,1003.6
2022-10-27T10:18:29.611Z,1003.6
2022-10-27T10:19:22.010Z,1003.6
2022-10-27T10:20:21.739Z,1003.7
2022-10-27T10:21:31.596Z,1003.7
2022-10-27T10:22:32.043Z,1003.7
2022-10-27T10:23:23.740Z,1003.7
2022-10-27T10:24:19.381Z,1003.7
2022-10-27T10:25:22.137Z,1003.7
2022-10-27T10:26:28.234Z,1003.7
2022-10-27T10:27:24.435Z,1003.7
2022-10-27T10:28:32.588Z,1003.7
2022-10-27T10:29:29.325Z,1003.8
2022-10-27T10:30:20.481Z,1003.8
2022-10-27T10:31:23.337Z,1003.7
2022-10-27T10:32:27.441Z,1003.7
2022-10-27T10:33:28.226Z,1003.7
2022-10-27T10:34:21.751Z,1003.7
2022-10-27T10:35:21.760Z,1003.7
2022-10-27T10:36:27.485Z,1003.6
2022-10-27T10:37:31.046Z,1003.6
2022-10-27T10:38:21.415Z,1003.6
2022-10-27T10:39:31.864Z,1003.6
2022-10-27T10:40:25.520Z,1003.6
2022-10-27T10:41:21.872Z,1003.6
2022-10-27T10:42:24.960Z,1003.6
2022-10-27T10:43:28.431Z,1003.6
2022-10-27T10:44:26.260Z,1003.6
2022-10-27T10:45:20.441Z,1003.6
2022-10-27T10:46:31.321Z,1003.6
2022-10-27T10:47:27.060Z,1003.6
2022-10-27T10:48:22.116Z,1003.6
2022-10-27T10:49:31.372Z,1003.6
2022-10-27T10:50:22.933Z,1003.6
2022-10-27T10:51:23.761Z,1003.6
2022-10-27T10:52:24.917Z,1003.6
2022-10-27T10:53:31.824Z,1003.6
2022-10-27T10:54:26.877Z,1003.6
2022-10-27T10:55:24.702Z,1003.6
2022-10-27T10:56:32.971Z,1003.6
2022-10-27T10:57:32.108Z,1003.6
2022-10-27T10:58:23.446Z,1003.5
2022-10-27T10:59:21.966Z,1003.5
2022-10-27T11:00:31.442Z,1003.6
2022-10-27T11:01:27.504Z,1003.5
2022-10-27T11:02:21.471Z,1003.5
2022-10-27T11:03:20.827Z,1003.5
2022-10-27T11:04:29.971Z,1003.5
2022-10-27T11:05:27.036Z,1003.5
2022-10-27T11:06:22.197Z,1003.5
2022-10-27T11:07:29.739Z,1003.5
2022-10-27T11:08:26.973Z,1003.5
2022-10-27T11:09:21.604Z,1003.5
2022-10-27T11:10:26.839Z,1003.5
2022-10-27T11:11:27.821Z,1003.5
2022-10-27T11:12:25.222Z,1003.5
2022-10-27T11:13:20.152Z,1003.4
2022-10-27T11:14:31.820Z,1003.4
2022-10-27T11:15:25.901Z,1003.4
2022-10-27T11:16:22.480Z,1003.3
2022-10-27T11:17:21.786Z,1003.3
2022-10-27T11:18:22.075Z,1003.3
2022-10-27T11:19:23.375Z,1003.3
2022-10-27T11:20:20.829Z,1003.2
2022-10-27T11:21:30.317Z,1003.2
2022-10-27T11:22:26.979Z,1003.2
2022-10-27T11:23:22.319Z,1003.2
2022-10-27T11:24:23.266Z,1003.2
2022-10-27T11:25:29.278Z,1003.2
2022-10-27T11:26:23.785Z,1003.2
2022-10-27T11:27:19.347Z,1003.3
2022-10-27T11:28:22.825Z,1003.3
2022-10-27T11:29:25.847Z,1003.3
2022-10-27T11:30:23.625Z,1003.3
2022-10-27T11:31:26.301Z,1003.4
2022-10-27T11:32:30.437Z,1003.4
2022-10-27T11:33:24.884Z,1003.4
2022-10-27T11:34:19.832Z,1003.4
2022-10-27T11:35:21.900Z,1003.4
2022-10-27T11:36:27.164Z,1003.4
2022-10-27T11:37:21.720Z,1003.4
2022-10-27T11:38:21.453Z,1003.4
2022-10-27T11:39:27.667Z,1003.4
2022-10-27T11:40:23.752Z,1003.4
2022-10-27T11:41:21.670Z,1003.4
2022-10-27T11:42:24.394Z,1003.3
2022-10-27T11:43:23.992Z,1003.3
2022-10-27T11:44:21.679Z,1003.3
2022-10-27T11:45:32.571Z,1003.3
2022-10-27T11:46:27.583Z,1003.3
2022-10-27T11:47:25.169Z,1003.3
2022-10-27T11:48:20.518Z,1003.3
2022-10-27T11:49:29.618Z,1003.3
2022-10-27T11:50:26.563Z,1003.3
2022-10-27T11:51:23.554Z,1003.3
2022-10-27T11:52:31.654Z,1003.3
2022-10-27T11:53:23.609Z,1003.3
2022-10-27T11:54:23.605Z,1003.3
2022-10-27T11:55:26.477Z,1003.2
2022-10-27T11:56:23.054Z,1003.2
2022-10-27T11:57:40.049Z,1003.2
2022-10-27T11:58:26.536Z,1003.2
2022-10-27T11:59:31.503Z,1003.2
2022-10-27T12:00:28.322Z,1003.2
2022-10-27T12:01:24.214Z,1003.2
2022-10-27T12:02:20.641Z,1003.2
2022-10-27T12:03:24.813Z,1003.2
2022-10-27T12:04:20.172Z,1003.2
2022-10-27T12:05:23.269Z,1003.2
2022-10-27T12:06:22.741Z,1003.2
2022-10-27T12:07:28.422Z,1003.2
2022-10-27T12:08:23.479Z,1003.2
2022-10-27T12:09:23.869Z,1003.2
2022-10-27T12:10:32.309Z,1003.3
2022-10-27T12:11:25.407Z,1003.2
2022-10-27T12:12:26.239Z,1003.2
2022-10-27T12:13:25.488Z,1003.3
2022-10-27T12:14:27.426Z,1003.3
2022-10-27T12:15:25.306Z,1003.3
2022-10-27T12:16:19.628Z,1003.3
2022-10-27T12:17:33.217Z,1003.3
2022-10-27T12:18:30.993Z,1003.3
2022-10-27T12:19:36.175Z,1003.3
2022-10-27T12:20:31.876Z,1003.3
2022-10-27T12:21:24.289Z,1003.3
2022-10-27T12:22:24.066Z,1003.3
2022-10-27T12:23:21.097Z,1003.3
2022-10-27T12:24:30.619Z,1003.2
2022-10-27T12:25:27.746Z,1003.2
2022-10-27T12:26:23.666Z,1003.2
2022-10-27T12:27:33.740Z,1003.2
2022-10-27T12:28:30.724Z,1003.2
2022-10-27T12:29:19.717Z,1003.1
2022-10-27T12:30:19.410Z,1003.1
2022-10-27T12:31:31.248Z,1003.1
2022-10-27T12:32:25.778Z,1003.1
2022-10-27T12:33:21.408Z,1003.1
2022-10-27T12:34:20.051Z,1003.1
2022-10-27T12:35:27.727Z,1003.1
2022-10-27T12:36:23.951Z,1003.1
2022-10-27T12:37:23.389Z,1003.1
2022-10-27T12:38:31.056Z,1003.1
2022-10-27T12:39:25.866Z,1003.1
2022-10-27T12:40:24.331Z,1003.1
2022-10-27T12:41:24.447Z,1003.1
2022-10-27T12:42:27.668Z,1003.1
2022-10-27T12:43:28.062Z,1003.0
2022-10-27T12:44:22.085Z,1003.0
2022-10-27T12:45:30.850Z,1003.0
2022-10-27T12:46:27.759Z,1003.1
2022-10-27T12:47:23.822Z,1003.1
2022-10-27T12:48:27.886Z,1003.0
2022-10-27T12:49:22.623Z,1003.0
2022-10-27T12:50:24.534Z,1003.0
2022-10-27T12:51:20.363Z,1003.0
2022-10-27T12:52:30.202Z,1003.0
2022-10-27T12:53:27.813Z,1003.0
2022-10-27T12:54:30.651Z,1002.9
2022-10-27T12:55:34.442Z,1002.9
2022-10-27T12:56:27.615Z,1002.9
2022-10-27T12:57:27.029Z,1002.9
2022-10-27T12:58:20.838Z,1002.9
2022-10-27T12:59:23.165Z,1002.9
2022-10-27T13:00:31.429Z,1002.9
2022-10-27T13:01:23.825Z,1002.9
2022-10-27T13:02:31.654Z,1002.9
2022-10-27T13:03:29.979Z,1002.9
2022-10-27T13:04:25.129Z,1002.9
2022-10-27T13:05:19.743Z,1002.9
2022-10-27T13:06:29.010Z,1002.9
2022-10-27T13:07:26.346Z,1002.9
2022-10-27T13:08:21.731Z,1002.9
2022-10-27T13:09:22.651Z,1002.9
2022-10-27T13:10:32.942Z,1002.9
2022-10-27T13:11:25.758Z,1002.9
2022-10-27T13:12:21.074Z,1002.9
2022-10-27T13:13:30.411Z,1002.9
2022-10-27T13:14:29.116Z,1002.9
2022-10-27T13:15:21.799Z,1002.9
2022-10-27T13:16:25.109Z,1002.9
2022-10-27T13:17:29.473Z,1002.9
2022-10-27T13:18:24.248Z,1002.9
2022-10-27T13:19:20.706Z,1002.9
2022-10-27T13:20:35.635Z,1002.9
2022-10-27T13:21:27.560Z,1002.9
2022-10-27T13:22:23.411Z,1002.9
2022-10-27T13:23:27.797Z,1002.9
2022-10-27T13:24:27.806Z,1002.9
2022-10-27T13:25:25.729Z,1002.9
2022-10-27T13:26:20.510Z,1002.8
2022-10-27T13:27:22.525Z,1002.8
2022-10-27T13:28:25.997Z,1002.8
2022-10-27T13:29:21.622Z,1002.8
2022-10-27T13:30:31.875Z,1002.8
2022-10-27T13:31:30.470Z,1002.8
2022-10-27T13:32:25.588Z,1002.8
2022-10-27T13:33:20.835Z,1002.8
2022-10-27T13:34:27.616Z,1002.8
2022-10-27T13:35:25.878Z,1002.8
2022-10-27T13:36:21.470Z,1002.8
2022-10-27T13:37:22.515Z,1002.8